Time;durP1;ratioP1;P1;durP2;ratioP2;P2;SDS_P1;SDS_P2;PMS_P1;PMS_P2;Temp;Humidity;BMP_temperature;BMP_pressure;BME280_temperature;BME280_humidity;BME280_pressure;Samples;Min_cycle;Max_cycle;Signal;HPM_P1;HPM_P2
2020/12/31 00:00:37;;;;;;;3.33;2.33;;;2.80;76.00;;;3.32;64.34;96738.41;5063614;28;20058;-46
2020/12/31 00:03:04;;;;;;;3.63;2.27;;;2.80;76.00;;;3.35;64.25;96739.94;5081574;28;20051;-45
2020/12/31 00:05:32;;;;;;;3.63;2.07;;;2.80;76.10;;;3.37;64.29;96743.25;5081263;28;20053;-47
2020/12/31 00:07:59;;;;;;;3.20;2.03;;;2.80;76.00;;;3.35;64.97;96734.66;5081672;28;20060;-46
2020/12/31 00:10:30;;;;;;;4.27;2.27;;;2.80;76.00;;;3.37;64.84;96738.00;5081620;28;20048;-46
2020/12/31 00:12:58;;;;;;;3.97;2.20;;;2.90;76.00;;;3.40;65.11;96735.09;5081103;28;20339;-47
2020/12/31 00:15:26;;;;;;;2.83;1.90;;;3.00;76.10;;;3.45;64.78;96732.03;5081205;28;20055;-47
2020/12/31 00:17:53;;;;;;;5.30;2.33;;;3.00;75.80;;;3.48;64.87;96731.78;5081189;28;20040;-44
2020/12/31 00:20:20;;;;;;;3.27;2.17;;;3.10;76.00;;;3.51;64.68;96726.25;5081671;28;20048;-47
2020/12/31 00:22:48;;;;;;;2.43;1.80;;;3.10;75.80;;;3.54;65.22;96723.31;5081581;28;20051;-46
2020/12/31 00:25:16;;;;;;;3.70;2.80;;;3.20;75.60;;;3.54;65.16;96721.50;5082036;28;20052;-48
2020/12/31 00:27:43;;;;;;;3.33;2.30;;;3.20;75.80;;;3.58;65.06;96722.06;5085204;28;20058;-46
2020/12/31 00:30:18;;;;;;;3.23;2.10;;;3.20;75.80;;;3.61;65.08;96720.97;5085142;28;20060;-46
2020/12/31 00:32:49;;;;;;;4.10;2.47;;;3.30;75.80;;;3.63;65.19;96719.03;5085197;28;20050;-46
2020/12/31 00:35:28;;;;;;;5.07;2.93;;;3.20;75.60;;;3.64;64.98;96726.75;5084672;28;20068;-51
2020/12/31 00:37:55;;;;;;;3.17;2.20;;;3.30;75.70;;;3.67;65.08;96725.66;5084980;28;20048;-46
2020/12/31 00:40:23;;;;;;;4.00;2.80;;;3.30;75.50;;;3.67;65.64;96717.78;5085008;28;20332;-46
2020/12/31 00:42:50;;;;;;;5.07;2.60;;;3.30;75.50;;;3.67;65.42;96729.13;5084831;28;20271;-44
2020/12/31 00:45:18;;;;;;;5.17;2.60;;;3.30;75.50;;;3.68;65.26;96724.69;5084425;28;20222;-48
2020/12/31 00:47:45;;;;;;;4.60;3.00;;;3.30;75.50;;;3.70;65.08;96722.75;5084596;28;20240;-47
2020/12/31 00:50:13;;;;;;;4.67;2.67;;;3.30;75.50;;;3.70;65.05;96715.69;5084605;28;20052;-48
2020/12/31 00:52:40;;;;;;;3.43;2.67;;;3.30;75.50;;;3.69;65.48;96714.03;5084864;28;20048;-47
2020/12/31 00:55:08;;;;;;;4.50;2.90;;;3.30;75.50;;;3.69;64.99;96706.13;5082347;28;20056;-45
2020/12/31 00:57:35;;;;;;;3.97;3.00;;;3.30;75.50;;;3.69;65.17;96707.94;5066126;28;20052;-46
2020/12/31 01:00:07;;;;;;;3.60;2.30;;;3.30;75.50;;;3.70;64.97;96710.44;5083425;28;20244;-47
2020/12/31 01:02:49;;;;;;;4.33;3.13;;;3.30;75.30;;;3.72;65.03;96705.84;5083435;28;20067;-45
2020/12/31 01:05:17;;;;;;;4.40;2.77;;;3.30;75.10;;;3.73;64.97;96709.31;5084570;28;20040;-46
2020/12/31 01:07:45;;;;;;;4.43;3.20;;;3.30;75.20;;;3.71;65.33;96706.00;5084508;28;20044;-48
2020/12/31 01:10:12;;;;;;;3.33;2.33;;;3.30;75.20;;;3.69;64.87;96708.75;5066845;28;20236;-45
2020/12/31 01:12:40;;;;;;;3.60;2.80;;;3.30;75.10;;;3.66;65.22;96703.75;5084318;28;20048;-45
2020/12/31 01:15:07;;;;;;;5.10;2.80;;;3.20;75.10;;;3.67;65.20;96709.88;5084012;28;20044;-49
2020/12/31 01:17:35;;;;;;;4.00;2.40;;;3.20;75.20;;;3.67;65.40;96712.50;5084296;28;20044;-44
2020/12/31 01:20:05;;;;;;;3.60;2.60;;;3.20;75.20;;;3.66;65.14;96716.91;5083355;28;20052;-45
2020/12/31 01:22:32;;;;;;;4.33;2.57;;;3.30;75.50;;;3.67;65.21;96713.31;5066770;28;20041;-48
2020/12/31 01:25:00;;;;;;;4.80;2.30;;;3.30;75.30;;;3.69;64.69;96705.28;5083764;28;20044;-45
2020/12/31 01:27:27;;;;;;;3.73;2.73;;;3.20;75.10;;;3.68;65.01;96704.47;5084110;28;20058;-46
2020/12/31 01:29:54;;;;;;;4.37;2.70;;;3.30;75.20;;;3.69;65.09;96694.78;5082118;28;20049;-46
2020/12/31 01:32:25;;;;;;;4.13;2.70;;;3.30;75.10;;;3.68;64.81;96704.47;5083962;28;20043;-49
2020/12/31 01:34:53;;;;;;;5.10;2.60;;;3.30;75.10;;;3.67;65.03;96696.72;5083624;28;20054;-45
2020/12/31 01:37:21;;;;;;;4.87;2.90;;;3.20;74.90;;;3.67;64.97;96691.44;5082674;28;20044;-47
2020/12/31 01:39:49;;;;;;;4.20;2.53;;;3.20;74.50;;;3.66;64.97;96687.97;5066270;28;20240;-48
2020/12/31 01:42:17;;;;;;;3.97;2.73;;;3.20;74.50;;;3.68;64.81;96687.81;5083887;28;20052;-45
2020/12/31 01:44:44;;;;;;;3.30;2.30;;;3.20;74.30;;;3.69;64.53;96689.50;5083475;28;20045;-45
2020/12/31 01:47:13;;;;;;;3.40;2.43;;;3.20;74.00;;;3.67;64.81;96683.56;5083729;28;20228;-47
2020/12/31 01:49:43;;;;;;;4.60;2.33;;;3.20;73.80;;;3.66;64.18;96684.50;5083647;28;20067;-46
2020/12/31 01:52:14;;;;;;;3.90;2.57;;;3.20;73.80;;;3.63;64.40;96677.72;5066187;28;20058;-46
2020/12/31 01:54:47;;;;;;;3.57;1.93;;;3.20;73.80;;;3.61;64.47;96678.84;5083347;28;20372;-46
2020/12/31 01:57:15;;;;;;;4.90;2.93;;;3.10;73.40;;;3.59;63.88;96680.78;5082999;28;20059;-45
2020/12/31 01:59:43;;;;;;;4.13;2.80;;;3.10;73.50;;;3.60;64.18;96683.28;5065580;28;20294;-45
2020/12/31 02:02:11;;;;;;;4.37;2.73;;;3.10;73.30;;;3.59;64.35;96672.88;5065764;28;20049;-44
2020/12/31 02:04:39;;;;;;;4.90;2.33;;;3.10;73.30;;;3.56;64.11;96674.00;5067561;28;20048;-45
2020/12/31 02:07:07;;;;;;;3.93;2.40;;;3.10;73.40;;;3.53;64.12;96667.22;5083252;28;20048;-45
2020/12/31 02:09:34;;;;;;;3.90;2.47;;;3.10;73.60;;;3.51;64.14;96668.34;5083287;28;20070;-45
2020/12/31 02:12:05;;;;;;;3.90;2.87;;;3.00;73.60;;;3.47;64.25;96672.19;5083004;28;20052;-45
2020/12/31 02:14:33;;;;;;;5.47;3.30;;;3.00;73.80;;;3.43;63.83;96661.16;5064398;28;20225;-48
2020/12/31 02:17:00;;;;;;;4.13;2.70;;;2.90;74.20;;;3.44;64.39;96669.88;5081512;28;20118;-44
2020/12/31 02:19:28;;;;;;;4.47;2.97;;;3.00;74.40;;;3.45;64.34;96668.88;5083211;28;20049;-51
2020/12/31 02:21:55;;;;;;;3.83;2.87;;;3.00;74.50;;;3.44;64.31;96675.97;5083085;28;20055;-47
2020/12/31 02:24:22;;;;;;;5.17;3.10;;;3.00;74.40;;;3.44;64.48;96675.97;5082901;28;20052;-45
2020/12/31 02:26:50;;;;;;;4.57;3.20;;;3.00;74.30;;;3.42;64.38;96677.91;5082522;28;20048;-45
2020/12/31 02:29:18;;;;;;;6.30;3.70;;;2.90;74.30;;;3.38;64.59;96673.06;5082998;28;20048;-47
2020/12/31 02:31:47;;;;;;;4.50;3.10;;;2.90;74.60;;;3.35;64.21;96677.66;5082744;28;20044;-45
2020/12/31 02:34:15;;;;;;;6.43;3.20;;;2.80;75.60;;;3.30;64.22;96676.41;5081645;28;20386;-48
2020/12/31 02:36:43;;;;;;;6.97;3.53;;;2.80;74.80;;;3.26;64.06;96675.03;5082363;28;20236;-45
2020/12/31 02:39:13;;;;;;;5.67;3.30;;;2.70;74.90;;;3.23;64.38;96675.28;5082642;28;20237;-48
2020/12/31 02:41:41;;;;;;;4.40;3.30;;;2.70;75.00;;;3.18;64.31;96670.44;5082592;28;20336;-45
2020/12/31 02:44:09;;;;;;;4.30;3.03;;;2.70;75.00;;;3.12;64.37;96669.19;5082237;28;20345;-45
2020/12/31 02:46:37;;;;;;;4.17;2.80;;;2.50;75.00;;;3.09;64.41;96677.34;5081825;28;20049;-49
2020/12/31 02:49:06;;;;;;;5.50;3.67;;;2.60;75.10;;;3.06;64.30;96674.16;5082295;28;20055;-45
2020/12/31 02:51:35;;;;;;;7.07;3.77;;;2.50;75.10;;;3.02;64.31;96673.59;5082519;28;20056;-46
2020/12/31 02:54:03;;;;;;;6.93;3.30;;;2.50;75.10;;;3.00;64.63;96672.09;5082429;28;20055;-46
2020/12/31 02:56:32;;;;;;;5.97;3.37;;;2.50;75.20;;;2.99;64.47;96670.44;5081886;28;20052;-48
2020/12/31 02:58:59;;;;;;;7.07;3.77;;;2.50;75.30;;;2.96;64.65;96661.03;5082321;28;20331;-46
2020/12/31 03:01:27;;;;;;;6.37;3.40;;;2.40;75.30;;;2.96;64.65;96667.09;5082435;28;20044;-48
2020/12/31 03:03:54;;;;;;;5.53;3.70;;;2.50;75.40;;;2.95;64.41;96668.09;5082427;28;20049;-46
2020/12/31 03:06:21;;;;;;;5.80;3.63;;;2.50;75.20;;;2.94;64.27;96670.84;5081960;28;20054;-48
2020/12/31 03:08:49;;;;;;;5.23;3.70;;;2.40;75.00;;;2.93;64.19;96670.03;5082268;28;20064;-46
2020/12/31 03:11:22;;;;;;;6.93;3.67;;;2.40;75.00;;;2.92;64.42;96657.00;5081728;28;20062;-48
2020/12/31 03:13:51;;;;;;;5.65;3.63;;;2.40;74.90;;;2.89;64.50;96652.00;5082351;28;20044;-49
2020/12/31 03:16:20;;;;;;;8.43;4.20;;;2.40;74.90;;;2.86;64.16;96650.50;5081801;28;20054;-49
2020/12/31 03:18:48;;;;;;;5.17;3.60;;;2.40;74.80;;;2.87;64.60;96646.91;5081810;28;20348;-45
2020/12/31 03:21:16;;;;;;;5.90;3.37;;;2.40;74.70;;;2.85;64.30;96643.59;5082110;28;20194;-47
2020/12/31 03:23:43;;;;;;;5.27;3.73;;;2.40;74.60;;;2.84;64.67;96644.56;5080865;28;20055;-47
2020/12/31 03:26:10;;;;;;;4.97;3.43;;;2.40;74.60;;;2.83;64.52;96642.91;5080664;28;20240;-46
2020/12/31 03:28:38;;;;;;;5.93;3.70;;;2.40;74.50;;;2.83;64.40;96640.28;5082169;28;20048;-48
2020/12/31 03:31:06;;;;;;;7.87;3.70;;;2.40;74.50;;;2.81;64.17;96651.88;5081951;28;20074;-46
2020/12/31 03:33:33;;;;;;;5.37;3.73;;;2.40;75.20;;;2.79;64.41;96644.13;5081940;28;20057;-49
2020/12/31 03:36:00;;;;;;;6.83;4.07;;;2.30;74.30;;;2.76;63.99;96642.59;5081509;28;20054;-45
2020/12/31 03:38:28;;;;;;;5.03;3.20;;;2.30;74.50;;;2.76;64.41;96647.84;5082102;28;20041;-47
2020/12/31 03:40:55;;;;;;;5.27;3.13;;;2.30;74.30;;;2.75;64.33;96632.22;5081578;28;20055;-46
2020/12/31 03:43:23;;;;;;;5.53;3.50;;;2.20;73.80;;;2.73;63.83;96631.53;5081485;28;20053;-45
2020/12/31 03:45:50;;;;;;;5.07;3.47;;;2.20;73.70;;;2.72;64.07;96638.59;5079982;28;20237;-45
2020/12/31 03:48:17;;;;;;;5.40;3.50;;;2.20;73.70;;;2.71;64.17;96636.09;5081879;28;20044;-45
2020/12/31 03:50:45;;;;;;;7.03;3.40;;;2.20;73.50;;;2.70;63.83;96623.94;5081875;28;20055;-50
2020/12/31 03:53:12;;;;;;;6.27;3.33;;;2.20;73.40;;;2.69;63.98;96627.53;5081871;28;20052;-47
2020/12/31 03:55:39;;;;;;;5.63;3.23;;;2.20;73.30;;;2.68;63.82;96625.88;5081392;28;20056;-46
2020/12/31 03:58:07;;;;;;;5.93;3.50;;;2.20;73.20;;;2.67;64.26;96624.19;5081680;28;20040;-47
2020/12/31 04:00:34;;;;;;;6.67;3.90;;;2.20;73.20;;;2.65;64.06;96608.56;5084166;28;20346;-46
2020/12/31 04:03:01;;;;;;;6.40;3.77;;;2.20;73.30;;;2.66;64.13;96606.78;5085862;28;20040;-46
2020/12/31 04:05:29;;;;;;;6.23;3.60;;;2.20;73.30;;;2.66;63.79;96601.53;5085299;28;20070;-45
2020/12/31 04:07:56;;;;;;;8.10;4.63;;;2.20;73.30;;;2.66;63.97;96599.72;5085646;28;20059;-47
2020/12/31 04:10:25;;;;;;;5.57;3.57;;;2.20;73.40;;;2.65;64.02;96597.22;5085603;28;20053;-45
2020/12/31 04:12:53;;;;;;;6.30;3.70;;;2.20;73.30;;;2.63;63.88;96592.09;5084564;28;20048;-46
2020/12/31 04:15:20;;;;;;;6.43;3.73;;;2.20;73.30;;;2.61;63.74;96594.03;5085057;28;20056;-46
2020/12/31 04:17:48;;;;;;;4.40;3.37;;;2.10;73.40;;;2.58;64.08;96596.09;5085320;28;20055;-48
2020/12/31 04:20:15;;;;;;;7.20;3.47;;;2.10;73.50;;;2.55;63.83;96590.16;5085444;28;20039;-46
2020/12/31 04:22:42;;;;;;;5.93;4.03;;;2.10;73.50;;;2.52;64.14;96593.06;5085454;28;20047;-45
2020/12/31 04:25:10;;;;;;;6.47;3.57;;;2.00;74.20;;;2.51;63.95;96590.59;5084478;28;20055;-46
2020/12/31 04:27:37;;;;;;;5.53;3.33;;;2.00;73.40;;;2.49;63.46;96588.09;5085324;28;20236;-48
2020/12/31 04:30:04;;;;;;;5.63;3.10;;;2.00;73.50;;;2.48;63.70;96586.44;5084494;28;20052;-47
2020/12/31 04:32:32;;;;;;;6.33;4.30;;;2.00;73.50;;;2.47;63.72;96586.56;5084118;28;20041;-45
2020/12/31 04:34:59;;;;;;;6.80;4.23;;;2.00;73.60;;;2.45;63.57;96580.63;5085078;28;20048;-46
2020/12/31 04:37:26;;;;;;;7.20;3.87;;;2.00;73.50;;;2.43;63.35;96572.06;5085051;28;20055;-45
2020/12/31 04:39:54;;;;;;;5.90;3.77;;;1.90;73.30;;;2.42;63.40;96571.19;5085059;28;20295;-45
2020/12/31 04:42:21;;;;;;;5.37;3.33;;;1.90;73.50;;;2.41;63.80;96566.94;5084679;28;20060;-47
2020/12/31 04:44:49;;;;;;;6.97;3.83;;;1.90;73.60;;;2.40;63.82;96569.69;5084745;28;20337;-45
2020/12/31 04:47:20;;;;;;;7.90;3.67;;;1.90;73.60;;;2.38;64.04;96563.75;5083062;28;20052;-47
2020/12/31 04:49:52;;;;;;;6.30;3.53;;;1.90;73.40;;;2.34;63.66;96571.88;5084456;28;20048;-45
2020/12/31 04:52:20;;;;;;;4.67;3.10;;;1.80;73.50;;;2.33;63.83;96561.53;5083802;28;20048;-46
2020/12/31 04:54:48;;;;;;;5.93;3.37;;;1.80;73.40;;;2.29;64.01;96563.59;5100019;28;20218;-48
2020/12/31 04:57:15;;;;;;;6.47;3.67;;;1.80;73.40;;;2.27;63.67;96570.78;5084734;28;20040;-46
2020/12/31 04:59:42;;;;;;;6.23;3.40;;;1.70;73.50;;;2.25;63.72;96561.34;5084728;28;20051;-47
2020/12/31 05:02:10;;;;;;;5.87;3.10;;;1.70;73.70;;;2.23;63.81;96563.28;5084615;28;20263;-46
2020/12/31 05:04:38;;;;;;;6.90;3.73;;;1.70;73.70;;;2.22;63.38;96569.53;5100267;28;20044;-45
2020/12/31 05:07:08;;;;;;;5.23;2.90;;;1.70;73.60;;;2.20;63.65;96564.41;5084281;28;20047;-46
2020/12/31 05:09:35;;;;;;;6.63;3.77;;;1.70;73.70;;;2.20;63.48;96561.78;5084523;28;20048;-45
2020/12/31 05:12:03;;;;;;;6.00;3.63;;;1.70;73.60;;;2.19;63.61;96567.16;5082148;28;20049;-45
2020/12/31 05:14:36;;;;;;;5.20;3.50;;;1.70;73.50;;;2.17;63.88;96564.66;5084427;28;20352;-48
2020/12/31 05:17:18;;;;;;;6.78;3.75;;;1.70;73.40;;;2.16;63.92;96563.00;5063731;28;20249;-46
2020/12/31 05:19:46;;;;;;;6.93;3.67;;;1.70;73.60;;;2.14;63.97;96564.94;5083156;28;20237;-48
2020/12/31 05:22:19;;;;;;;5.20;3.00;;;1.60;73.50;;;2.12;63.25;96567.69;5084278;28;20044;-46
2020/12/31 05:24:50;;;;;;;5.53;3.65;;;1.60;73.50;;;2.10;63.82;96566.19;5084023;28;20070;-46
2020/12/31 05:27:24;;;;;;;7.90;3.93;;;1.50;73.30;;;2.04;63.94;96561.47;5083993;28;20075;-45
2020/12/31 05:30:00;;;;;;;7.03;3.28;;;1.50;73.60;;;2.02;63.85;96561.59;5084683;28;20052;-45
2020/12/31 05:32:39;;;;;;;8.03;3.60;;;1.50;73.60;;;1.96;63.77;96560.34;5190608;22;20048;-45
2020/12/31 05:35:18;;;;;;;7.13;3.37;;;1.40;73.40;;;1.94;63.33;96562.28;5103967;28;20240;-46
2020/12/31 05:37:45;;;;;;;5.90;3.13;;;1.40;74.40;;;1.91;63.41;96557.28;5104447;28;20050;-46
2020/12/31 05:40:14;;;;;;;6.37;3.67;;;1.40;73.50;;;1.88;63.82;96559.34;5104206;28;20044;-47
2020/12/31 05:42:43;;;;;;;5.23;3.17;;;1.30;73.50;;;1.86;63.78;96550.78;5102934;28;20243;-48
2020/12/31 05:45:15;;;;;;;4.87;3.57;;;1.30;73.60;;;1.83;63.15;96549.25;5103563;28;20048;-46
2020/12/31 05:47:49;;;;;;;4.53;2.93;;;1.30;74.00;;;1.83;63.95;96554.50;5104331;28;20040;-46
2020/12/31 05:50:22;;;;;;;;;;;1.30;74.00;;;1.80;63.97;96549.50;5104170;28;20055;-46
2020/12/31 05:52:51;;;;;;;4.87;3.40;;;1.30;74.20;;;1.80;63.33;96560.00;5103197;28;19916;-49
2020/12/31 05:55:22;;;;;;;5.70;3.20;;;1.30;74.00;;;1.77;63.55;96544.53;5103105;28;20056;-46
2020/12/31 05:57:52;;;;;;;4.67;3.47;;;1.30;73.80;;;1.76;64.05;96550.75;5102595;28;20052;-45
2020/12/31 06:00:29;;;;;;;5.50;3.60;;;1.20;74.00;;;1.77;64.10;96544.53;5103269;28;20040;-46
2020/12/31 06:03:00;;;;;;;5.37;3.10;;;1.20;74.00;;;1.80;63.58;96546.06;5103250;28;20052;-48
2020/12/31 06:05:30;;;;;;;3.57;2.60;;;1.30;74.00;;;1.81;63.66;96538.06;5103335;28;20066;-46
2020/12/31 06:07:58;;;;;;;7.10;3.00;;;1.30;73.70;;;1.82;63.84;96539.72;5103394;28;20087;-49
2020/12/31 06:10:32;;;;;;;5.87;3.13;;;1.40;73.30;;;1.86;64.29;96532.41;5103222;28;20054;-45
2020/12/31 06:13:05;;;;;;;5.13;3.00;;;1.50;73.30;;;1.89;63.89;96534.78;5103565;28;20235;-46
2020/12/31 06:15:37;;;;;;;6.37;3.77;;;1.50;73.10;;;1.90;64.58;96528.53;5103240;28;20047;-49
2020/12/31 06:18:07;;;;;;;4.03;2.57;;;1.50;72.90;;;1.93;63.94;96533.53;5103515;28;20040;-48
2020/12/31 06:20:39;;;;;;;4.20;2.40;;;1.50;72.60;;;1.96;63.75;96528.03;5102419;28;20236;-46
2020/12/31 06:23:10;;;;;;;4.83;2.73;;;1.50;72.40;;;1.94;63.73;96525.53;5103238;28;20323;-47
2020/12/31 06:25:48;;;;;;;5.67;2.57;;;1.60;72.10;;;1.95;63.37;96519.28;5102866;28;20039;-45
2020/12/31 06:28:17;;;;;;;4.87;2.67;;;1.60;72.10;;;1.97;63.34;96525.25;5101870;28;20363;-46
2020/12/31 06:30:48;;;;;;;5.73;2.70;;;1.60;72.10;;;1.99;63.26;96519.03;5103148;28;20235;-47
2020/12/31 06:33:30;;;;;;;4.13;2.53;;;1.60;72.10;;;2.00;63.34;96518.91;5103664;28;20044;-46
2020/12/31 06:36:01;;;;;;;4.87;3.40;;;1.60;71.80;;;2.02;63.42;96519.59;5100880;28;20083;-46
2020/12/31 06:38:40;;;;;;;4.97;3.30;;;1.60;71.90;;;2.03;63.70;96510.75;5103078;28;20040;-47
2020/12/31 06:41:38;;;;;;;4.37;2.97;;;1.60;71.90;;;2.03;63.83;96512.56;5102990;28;20079;-46
2020/12/31 06:44:12;;;;;;;5.83;2.80;;;1.60;71.80;;;2.03;63.82;96513.38;5103015;28;20048;-45
2020/12/31 06:46:45;;;;;;;8.57;7.70;;;1.60;71.90;;;2.04;63.89;96511.59;5102398;28;20053;-45
2020/12/31 06:49:14;;;;;;;5.28;4.00;;;1.60;72.10;;;2.02;63.71;96509.09;5102940;28;20079;-48
2020/12/31 06:51:42;;;;;;;4.77;3.17;;;1.60;72.00;;;2.04;64.04;96511.59;5101795;28;20054;-47
2020/12/31 06:54:11;;;;;;;4.50;3.30;;;1.70;72.00;;;2.04;63.63;96515.03;5101636;28;20048;-46
2020/12/31 06:56:50;;;;;;;5.03;3.30;;;1.70;71.80;;;2.05;63.59;96503.56;5102390;28;20051;-45
2020/12/31 06:59:34;;;;;;;6.37;3.70;;;1.60;71.50;;;2.05;63.56;96508.81;5084505;28;20052;-45
2020/12/31 07:02:22;;;;;;;5.68;3.30;;;1.70;71.50;;;2.05;63.63;96506.19;5101547;28;20046;-47
2020/12/31 07:04:50;;;;;;;7.47;3.40;;;1.60;71.10;;;2.07;63.75;96514.75;5101988;28;20058;-47
2020/12/31 07:07:20;;;;;;;7.53;3.17;;;1.70;71.60;;;2.09;63.33;96506.75;5102514;28;20055;-45
2020/12/31 07:09:52;;;;;;;5.13;3.00;;;1.70;71.50;;;2.05;63.28;96505.38;5102723;28;20043;-47
2020/12/31 07:12:45;;;;;;;4.43;2.73;;;1.80;71.00;;;2.08;63.24;96500.69;5102630;28;20369;-48
2020/12/31 07:15:16;;;;;;;3.67;2.23;;;1.80;70.50;;;2.11;63.17;96508.28;5085221;28;20058;-47
2020/12/31 07:17:48;;;;;;;6.07;2.63;;;1.80;71.00;;;2.14;63.21;96512.44;5102644;28;20044;-46
2020/12/31 07:20:17;;;;;;;5.40;2.90;;;1.90;70.60;;;2.17;63.59;96505.13;5102501;28;20336;-45
2020/12/31 07:22:48;;;;;;;4.47;2.90;;;1.90;70.60;;;2.22;63.17;96511.75;5101318;28;20050;-48
2020/12/31 07:25:17;;;;;;;5.23;3.53;;;2.00;70.60;;;2.25;63.27;96509.69;5100759;28;20051;-46
2020/12/31 07:27:47;;;;;;;4.63;3.70;;;2.00;70.80;;;2.28;63.43;96514.66;5102305;28;20046;-46
2020/12/31 07:30:19;;;;;;;7.87;5.17;;;1.90;71.10;;;2.31;63.24;96508.31;5102561;28;20063;-46
2020/12/31 07:32:51;;;;;;;6.30;4.07;;;2.00;70.80;;;2.35;63.48;96504.44;5102377;28;20074;-46
2020/12/31 07:35:40;;;;;;;6.23;3.83;;;2.00;70.80;;;2.38;63.61;96503.31;5101093;28;20048;-48
2020/12/31 07:38:08;;;;;;;6.93;4.07;;;2.10;70.30;;;2.40;62.98;96511.88;5101735;28;20055;-45
2020/12/31 07:40:53;;;;;;;6.93;5.13;;;2.10;70.70;;;2.41;63.21;96511.75;5100518;28;20066;-48
2020/12/31 07:43:25;;;;;;;8.73;5.50;;;2.00;70.50;;;2.41;63.08;96505.69;5102205;28;20051;-47
2020/12/31 07:46:01;;;;;;;8.53;5.03;;;2.10;71.00;;;2.42;62.99;96499.44;5100744;28;20048;-46
2020/12/31 07:48:29;;;;;;;7.47;4.37;;;2.10;70.80;;;2.43;63.15;96511.63;5100208;28;20044;-46
2020/12/31 07:51:05;;;;;;;6.80;4.50;;;2.10;70.70;;;2.44;62.70;96502.75;5097706;28;20052;-46
2020/12/31 07:53:35;;;;;;;6.60;4.07;;;2.00;70.70;;;2.43;62.98;96509.81;5081771;28;20055;-46
2020/12/31 07:56:06;;;;;;;10.17;5.23;;;2.00;71.10;;;2.43;63.15;96503.75;5062158;28;20044;-47
2020/12/31 07:58:35;;;;;;;8.40;5.70;;;2.10;71.30;;;2.41;62.74;96497.81;5082659;28;20053;-46
2020/12/31 08:01:05;;;;;;;7.50;4.97;;;2.00;71.60;;;2.38;62.78;96498.88;5097264;28;20066;-47
2020/12/31 08:03:34;;;;;;;6.73;4.40;;;2.00;71.90;;;2.40;63.39;96493.50;5100361;28;20052;-46
2020/12/31 08:06:04;;;;;;;7.90;5.10;;;2.00;71.90;;;2.42;63.48;96488.94;5082771;28;20074;-45
2020/12/31 08:08:32;;;;;;;8.17;5.00;;;2.00;71.70;;;2.43;62.96;96485.34;5091134;28;20045;-48
2020/12/31 08:11:07;;;;;;;8.63;4.57;;;2.10;71.70;;;2.44;63.66;96484.38;5081665;28;20049;-47
2020/12/31 08:13:35;;;;;;;7.43;3.30;;;2.10;71.60;;;2.43;63.33;96488.81;5081567;28;20044;-46
2020/12/31 08:16:03;;;;;;;4.63;3.23;;;2.10;71.70;;;2.45;63.33;96488.66;5081371;28;20048;-49
2020/12/31 08:18:32;;;;;;;4.37;2.70;;;2.10;71.90;;;2.47;63.30;96490.19;5079269;28;20048;-45
2020/12/31 08:21:04;;;;;;;5.20;2.97;;;2.10;71.80;;;2.49;63.46;96488.25;5080461;28;20047;-48
2020/12/31 08:23:40;;;;;;;4.73;2.90;;;2.10;71.90;;;2.50;63.49;96482.03;5093091;28;20048;-47
2020/12/31 08:26:09;;;;;;;6.17;3.40;;;2.20;71.80;;;2.53;63.52;96494.06;5084101;28;20213;-46
2020/12/31 08:28:38;;;;;;;5.13;3.17;;;2.20;71.90;;;2.53;63.46;96492.25;5084061;28;20162;-46
2020/12/31 08:31:15;;;;;;;6.33;3.57;;;2.20;72.00;;;2.54;63.33;96488.66;5083951;28;20214;-45
2020/12/31 08:33:43;;;;;;;5.33;3.10;;;2.20;72.10;;;2.56;63.32;96489.34;5101565;28;20048;-46
2020/12/31 08:36:11;;;;;;;5.43;2.87;;;2.10;72.30;;;2.58;63.20;96485.75;5101170;28;20340;-49
2020/12/31 08:38:40;;;;;;;6.30;2.70;;;2.20;72.40;;;2.59;63.78;96487.41;5083790;28;20052;-44
2020/12/31 08:41:08;;;;;;;5.83;3.70;;;2.20;72.50;;;2.59;63.38;96482.97;5101645;28;20051;-44
2020/12/31 08:43:38;;;;;;;39.50;16.00;;;2.20;72.50;;;2.60;63.58;96487.28;5100972;28;20044;-47
2020/12/31 08:46:16;;;;;;;6.03;4.00;;;2.20;72.30;;;2.63;63.21;96489.63;5102081;28;20052;-45
2020/12/31 08:48:55;;;;;;;5.47;3.30;;;2.30;71.80;;;2.65;62.97;96486.84;5105320;28;20070;-45
2020/12/31 08:51:29;;;;;;;5.30;3.67;;;2.40;71.20;;;2.65;63.53;96487.66;5104095;28;20242;-46
2020/12/31 08:53:59;;;;;;;6.50;3.80;;;2.40;71.10;;;2.70;63.38;96487.28;5104561;28;20060;-45
2020/12/31 08:56:29;;;;;;;4.50;3.13;;;2.40;70.70;;;2.73;62.98;96487.81;5104015;28;20347;-46
2020/12/31 08:59:12;;;;;;;4.70;2.83;;;2.40;70.30;;;2.75;63.05;96485.03;5104244;28;20062;-47
2020/12/31 09:01:46;;;;;;;5.17;3.23;;;2.50;70.00;;;2.78;63.19;96484.75;5102698;28;20054;-45
2020/12/31 09:04:20;;;;;;;5.27;3.27;;;2.40;70.30;;;2.81;62.80;96487.13;5105011;28;20243;-48
2020/12/31 09:06:57;;;;;;;4.60;3.13;;;2.50;70.20;;;2.81;62.91;96486.28;5085703;28;20043;-47
2020/12/31 09:09:28;;;;;;;5.27;3.40;;;2.50;70.40;;;2.82;62.93;96480.88;5104122;28;20066;-47
2020/12/31 09:12:03;;;;;;;5.20;3.53;;;2.50;70.50;;;2.86;63.17;96486.69;5104742;28;20260;-48
2020/12/31 09:14:34;;;;;;;7.07;3.83;;;2.60;70.30;;;2.87;62.73;96483.06;5104865;28;20044;-45
2020/12/31 09:17:23;;;;;;;5.43;3.63;;;2.60;70.30;;;2.88;62.96;96487.38;5104322;28;20044;-47
2020/12/31 09:19:55;;;;;;;7.17;3.60;;;2.60;69.80;;;2.89;62.81;96483.75;5104638;28;20365;-46
2020/12/31 09:22:25;;;;;;;4.93;3.23;;;2.60;70.30;;;2.90;63.04;96495.94;5104206;28;20056;-48
2020/12/31 09:24:53;;;;;;;5.40;3.20;;;2.60;70.30;;;2.89;62.94;96497.75;5104552;28;20360;-50
2020/12/31 09:27:25;;;;;;;7.53;3.60;;;2.60;70.10;;;2.92;62.73;96491.38;5104499;28;20050;-49
2020/12/31 09:30:01;;;;;;;7.90;3.87;;;2.60;70.30;;;2.92;62.99;96494.81;5086072;28;20081;-46
2020/12/31 09:32:30;;;;;;;17.53;12.13;;;2.70;71.00;;;2.95;63.17;96491.91;5104361;28;20217;-45
2020/12/31 09:35:03;;;;;;;7.97;5.80;;;2.70;71.60;;;2.97;63.07;96494.41;5086106;28;20051;-45
2020/12/31 09:37:43;;;;;;;10.27;6.60;;;2.70;72.00;;;3.00;63.60;96493.28;5103956;28;20055;-46
2020/12/31 09:40:10;;;;;;;7.03;5.27;;;2.80;72.30;;;2.90;63.81;96483.63;5103802;28;20363;-45
2020/12/31 09:42:39;;;;;;;8.90;6.10;;;2.70;72.10;;;2.92;63.97;96484.31;5103069;28;20050;-45
2020/12/31 09:45:06;;;;;;;6.03;4.60;;;2.70;73.10;;;2.94;63.39;96476.28;5103018;28;20259;-48
2020/12/31 09:47:34;;;;;;;7.03;5.20;;;2.70;73.20;;;2.97;64.23;96481.28;5104110;28;20240;-46
2020/12/31 09:50:03;;;;;;;7.17;4.70;;;2.70;73.30;;;3.00;64.16;96480.97;5104197;28;20050;-46
2020/12/31 09:52:32;;;;;;;8.57;5.73;;;2.80;73.20;;;3.04;64.02;96477.06;5085889;28;20048;-48
2020/12/31 09:54:59;;;;;;;8.37;5.73;;;2.80;73.40;;;3.06;64.21;96469.06;5103543;28;20048;-46
2020/12/31 09:57:27;;;;;;;7.03;5.67;;;2.80;73.90;;;3.08;64.06;96462.69;5102341;28;20362;-45
2020/12/31 09:59:54;;;;;;;6.90;5.20;;;2.80;74.00;;;3.08;64.34;96460.06;5085996;28;20050;-45
2020/12/31 10:02:26;;;;;;;9.40;6.83;;;2.80;74.20;;;3.11;64.31;96451.88;5102745;28;20040;-47
2020/12/31 10:04:53;;;;;;;6.30;4.03;;;2.80;74.40;;;3.14;64.28;96453.38;5102749;28;20066;-46
2020/12/31 10:07:21;;;;;;;6.30;4.33;;;2.80;74.60;;;3.07;64.67;96447.88;5103743;28;20054;-48
2020/12/31 10:09:48;;;;;;;6.83;4.27;;;2.90;74.40;;;3.05;64.80;96444.56;5103653;28;20054;-46
2020/12/31 10:12:15;;;;;;;6.37;3.77;;;2.90;74.50;;;3.08;64.91;96448.69;5103664;28;20066;-47
2020/12/31 10:14:43;;;;;;;5.50;4.00;;;2.90;74.50;;;3.16;64.86;96438.31;5103308;28;20062;-45
2020/12/31 10:17:10;;;;;;;8.03;4.10;;;3.00;74.40;;;3.18;64.66;96435.50;5103426;28;20054;-45
2020/12/31 10:19:38;;;;;;;7.47;5.00;;;3.00;74.20;;;3.21;64.93;96433.44;5103269;28;20355;-49
2020/12/31 10:22:06;;;;;;;8.63;6.53;;;3.00;74.20;;;3.25;64.74;96432.16;5103074;28;20058;-45
2020/12/31 10:24:33;;;;;;;20.23;11.93;;;3.10;74.20;;;3.28;64.61;96421.34;5084518;28;20054;-45
2020/12/31 10:27:00;;;;;;;12.13;7.30;;;3.10;74.00;;;3.35;64.69;96429.47;5102985;28;20046;-45
2020/12/31 10:29:28;;;;;;;8.70;6.23;;;3.20;73.60;;;3.39;64.72;96422.13;5103196;28;20052;-45
2020/12/31 10:31:56;;;;;;;9.10;6.93;;;3.30;73.50;;;3.41;64.62;96418.38;5103119;28;20044;-45
2020/12/31 10:34:24;;;;;;;7.87;5.43;;;3.20;72.90;;;3.41;64.42;96418.38;5103114;28;20050;-45
2020/12/31 10:36:57;;;;;;;7.63;4.93;;;3.30;72.90;;;3.43;64.13;96415.59;5102727;28;20051;-46
2020/12/31 10:39:24;;;;;;;7.63;4.67;;;3.20;73.10;;;3.41;64.17;96410.47;5102880;28;20048;-45
2020/12/31 10:41:52;;;;;;;6.27;4.57;;;3.20;73.10;;;3.43;64.57;96402.44;5103079;28;20040;-45
2020/12/31 10:44:20;;;;;;;7.67;4.60;;;3.30;73.60;;;3.46;64.70;96400.34;5103015;28;20040;-44